sensor_id;sensor_type;location;lat;lon;timestamp;pressure;altitude;pressure_sealevel;temperature
44429;BMP180;30134;47.866;-4.222;2023-04-25T00:00:35;101147.00;;;22.10
44429;BMP180;30134;47.866;-4.222;2023-04-25T00:03:01;101150.00;;;22.10
44429;BMP180;30134;47.866;-4.222;2023-04-25T00:05:27;101153.00;;;22.10
44429;BMP180;30134;47.866;-4.222;2023-04-25T00:08:03;101150.00;;;22.00
44429;BMP180;30134;47.866;-4.222;2023-04-25T00:10:29;101151.00;;;22.00
44429;BMP180;30134;47.866;-4.222;2023-04-25T00:12:55;101147.00;;;22.00
44429;BMP180;30134;47.866;-4.222;2023-04-25T00:15:23;101153.00;;;22.00
44429;BMP180;30134;47.866;-4.222;2023-04-25T00:17:50;101154.00;;;22.00
44429;BMP180;30134;47.866;-4.222;2023-04-25T00:20:18;101152.00;;;21.90
44429;BMP180;30134;47.866;-4.222;2023-04-25T00:22:44;101147.00;;;21.90
44429;BMP180;30134;47.866;-4.222;2023-04-25T00:25:11;101136.00;;;21.90
44429;BMP180;30134;47.866;-4.222;2023-04-25T00:27:37;101140.00;;;21.90
44429;BMP180;30134;47.866;-4.222;2023-04-25T00:30:05;101141.00;;;21.90
44429;BMP180;30134;47.866;-4.222;2023-04-25T00:32:31;101144.00;;;21.80
44429;BMP180;30134;47.866;-4.222;2023-04-25T00:34:57;101151.00;;;21.80
44429;BMP180;30134;47.866;-4.222;2023-04-25T00:37:24;101147.00;;;21.80
44429;BMP180;30134;47.866;-4.222;2023-04-25T00:39:50;101151.00;;;21.80
44429;BMP180;30134;47.866;-4.222;2023-04-25T00:42:17;101148.00;;;21.80
44429;BMP180;30134;47.866;-4.222;2023-04-25T00:44:43;101143.00;;;21.80
44429;BMP180;30134;47.866;-4.222;2023-04-25T00:47:11;101140.00;;;21.80
44429;BMP180;30134;47.866;-4.222;2023-04-25T00:49:38;101145.00;;;21.80
44429;BMP180;30134;47.866;-4.222;2023-04-25T00:52:04;101145.00;;;21.70
44429;BMP180;30134;47.866;-4.222;2023-04-25T00:54:30;101146.00;;;21.70
44429;BMP180;30134;47.866;-4.222;2023-04-25T00:56:57;101152.00;;;21.70
44429;BMP180;30134;47.866;-4.222;2023-04-25T00:59:23;101156.00;;;21.70
44429;BMP180;30134;47.866;-4.222;2023-04-25T01:01:49;101154.00;;;21.70
44429;BMP180;30134;47.866;-4.222;2023-04-25T01:04:16;101147.00;;;21.70
44429;BMP180;30134;47.866;-4.222;2023-04-25T01:06:42;101155.00;;;21.70
44429;BMP180;30134;47.866;-4.222;2023-04-25T01:09:08;101150.00;;;21.70
44429;BMP180;30134;47.866;-4.222;2023-04-25T01:11:38;101152.00;;;21.70
44429;BMP180;30134;47.866;-4.222;2023-04-25T01:14:05;101149.00;;;21.70
44429;BMP180;30134;47.866;-4.222;2023-04-25T01:16:33;101141.00;;;21.70
44429;BMP180;30134;47.866;-4.222;2023-04-25T01:18:59;101145.00;;;21.70
44429;BMP180;30134;47.866;-4.222;2023-04-25T01:21:26;101145.00;;;21.60
44429;BMP180;30134;47.866;-4.222;2023-04-25T01:23:54;101149.00;;;21.60
44429;BMP180;30134;47.866;-4.222;2023-04-25T01:26:21;101145.00;;;21.60
44429;BMP180;30134;47.866;-4.222;2023-04-25T01:28:48;101141.00;;;21.60
44429;BMP180;30134;47.866;-4.222;2023-04-25T01:31:16;101140.00;;;21.60
44429;BMP180;30134;47.866;-4.222;2023-04-25T01:33:42;101132.00;;;21.60
44429;BMP180;30134;47.866;-4.222;2023-04-25T01:36:09;101135.00;;;21.50
44429;BMP180;30134;47.866;-4.222;2023-04-25T01:38:35;101129.00;;;21.50
44429;BMP180;30134;47.866;-4.222;2023-04-25T01:41:01;101134.00;;;21.50
44429;BMP180;30134;47.866;-4.222;2023-04-25T01:43:27;101144.00;;;21.50
44429;BMP180;30134;47.866;-4.222;2023-04-25T01:45:55;101137.00;;;21.50
44429;BMP180;30134;47.866;-4.222;2023-04-25T01:48:21;101139.00;;;21.50
44429;BMP180;30134;47.866;-4.222;2023-04-25T01:50:47;101132.00;;;21.50
44429;BMP180;30134;47.866;-4.222;2023-04-25T01:53:13;101130.00;;;21.50
44429;BMP180;30134;47.866;-4.222;2023-04-25T01:55:40;101126.00;;;21.50
44429;BMP180;30134;47.866;-4.222;2023-04-25T01:58:06;101123.00;;;21.40
44429;BMP180;30134;47.866;-4.222;2023-04-25T02:00:38;101125.00;;;21.40
44429;BMP180;30134;47.866;-4.222;2023-04-25T02:03:05;101131.00;;;21.50
44429;BMP180;30134;47.866;-4.222;2023-04-25T02:05:36;101135.00;;;21.50
44429;BMP180;30134;47.866;-4.222;2023-04-25T02:08:06;101139.00;;;21.40
44429;BMP180;30134;47.866;-4.222;2023-04-25T02:10:33;101128.00;;;21.40
44429;BMP180;30134;47.866;-4.222;2023-04-25T02:13:00;101117.00;;;21.40
44429;BMP180;30134;47.866;-4.222;2023-04-25T02:15:26;101121.00;;;21.40
44429;BMP180;30134;47.866;-4.222;2023-04-25T02:17:52;101124.00;;;21.40
44429;BMP180;30134;47.866;-4.222;2023-04-25T02:20:22;101121.00;;;21.30
44429;BMP180;30134;47.866;-4.222;2023-04-25T02:22:49;101123.00;;;21.40
44429;BMP180;30134;47.866;-4.222;2023-04-25T02:25:15;101131.00;;;21.40
44429;BMP180;30134;47.866;-4.222;2023-04-25T02:27:42;101127.00;;;21.40
44429;BMP180;30134;47.866;-4.222;2023-04-25T02:30:12;101133.00;;;21.40
44429;BMP180;30134;47.866;-4.222;2023-04-25T02:32:39;101130.00;;;21.40
44429;BMP180;30134;47.866;-4.222;2023-04-25T02:35:06;101130.00;;;21.40
44429;BMP180;30134;47.866;-4.222;2023-04-25T02:37:37;101125.00;;;21.40
44429;BMP180;30134;47.866;-4.222;2023-04-25T02:40:04;101129.00;;;21.40
44429;BMP180;30134;47.866;-4.222;2023-04-25T02:42:31;101124.00;;;21.30
44429;BMP180;30134;47.866;-4.222;2023-04-25T02:44:57;101123.00;;;21.30
44429;BMP180;30134;47.866;-4.222;2023-04-25T02:47:23;101120.00;;;21.30
44429;BMP180;30134;47.866;-4.222;2023-04-25T02:49:49;101126.00;;;21.30
44429;BMP180;30134;47.866;-4.222;2023-04-25T02:52:15;101131.00;;;21.30
44429;BMP180;30134;47.866;-4.222;2023-04-25T02:54:41;101120.00;;;21.30
44429;BMP180;30134;47.866;-4.222;2023-04-25T02:57:07;101122.00;;;21.30
44429;BMP180;30134;47.866;-4.222;2023-04-25T02:59:34;101119.00;;;21.30
44429;BMP180;30134;47.866;-4.222;2023-04-25T03:02:00;101117.00;;;21.30
44429;BMP180;30134;47.866;-4.222;2023-04-25T03:04:26;101123.00;;;21.30
44429;BMP180;30134;47.866;-4.222;2023-04-25T03:06:53;101115.00;;;21.30
44429;BMP180;30134;47.866;-4.222;2023-04-25T03:09:19;101126.00;;;21.30
44429;BMP180;30134;47.866;-4.222;2023-04-25T03:11:46;101126.00;;;21.20
44429;BMP180;30134;47.866;-4.222;2023-04-25T03:14:12;101130.00;;;21.20
44429;BMP180;30134;47.866;-4.222;2023-04-25T03:16:39;101122.00;;;21.20
44429;BMP180;30134;47.866;-4.222;2023-04-25T03:19:05;101125.00;;;21.20
44429;BMP180;30134;47.866;-4.222;2023-04-25T03:21:33;101129.00;;;21.20
44429;BMP180;30134;47.866;-4.222;2023-04-25T03:24:01;101135.00;;;21.20
44429;BMP180;30134;47.866;-4.222;2023-04-25T03:26:28;101134.00;;;21.20
44429;BMP180;30134;47.866;-4.222;2023-04-25T03:28:54;101127.00;;;21.20
44429;BMP180;30134;47.866;-4.222;2023-04-25T03:31:20;101133.00;;;21.20
44429;BMP180;30134;47.866;-4.222;2023-04-25T03:33:46;101133.00;;;21.20
44429;BMP180;30134;47.866;-4.222;2023-04-25T03:36:12;101123.00;;;21.10
44429;BMP180;30134;47.866;-4.222;2023-04-25T03:38:41;101116.00;;;21.20
44429;BMP180;30134;47.866;-4.222;2023-04-25T03:41:07;101117.00;;;21.10
44429;BMP180;30134;47.866;-4.222;2023-04-25T03:43:34;101112.00;;;21.20
44429;BMP180;30134;47.866;-4.222;2023-04-25T03:46:00;101106.00;;;21.20
44429;BMP180;30134;47.866;-4.222;2023-04-25T03:48:26;101103.00;;;21.20
44429;BMP180;30134;47.866;-4.222;2023-04-25T03:50:54;101103.00;;;21.20
44429;BMP180;30134;47.866;-4.222;2023-04-25T03:53:20;101101.00;;;21.20
44429;BMP180;30134;47.866;-4.222;2023-04-25T03:55:46;101102.00;;;21.20
44429;BMP180;30134;47.866;-4.222;2023-04-25T03:58:12;101106.00;;;21.10
44429;BMP180;30134;47.866;-4.222;2023-04-25T04:00:38;101106.00;;;21.10
44429;BMP180;30134;47.866;-4.222;2023-04-25T04:03:04;101116.00;;;21.10
44429;BMP180;30134;47.866;-4.222;2023-04-25T04:05:31;101123.00;;;21.10
44429;BMP180;30134;47.866;-4.222;2023-04-25T04:07:58;101116.00;;;21.10
44429;BMP180;30134;47.866;-4.222;2023-04-25T04:10:24;101118.00;;;21.10
44429;BMP180;30134;47.866;-4.222;2023-04-25T04:12:51;101114.00;;;21.10
44429;BMP180;30134;47.866;-4.222;2023-04-25T04:15:17;101125.00;;;21.10
44429;BMP180;30134;47.866;-4.222;2023-04-25T04:17:44;101126.00;;;21.10
44429;BMP180;30134;47.866;-4.222;2023-04-25T04:20:10;101125.00;;;21.10
44429;BMP180;30134;47.866;-4.222;2023-04-25T04:22:36;101133.00;;;21.10
44429;BMP180;30134;47.866;-4.222;2023-04-25T04:25:03;101133.00;;;21.10
44429;BMP180;30134;47.866;-4.222;2023-04-25T04:27:30;101131.00;;;21.00
44429;BMP180;30134;47.866;-4.222;2023-04-25T04:29:56;101136.00;;;21.10
44429;BMP180;30134;47.866;-4.222;2023-04-25T04:32:23;101131.00;;;21.10
44429;BMP180;30134;47.866;-4.222;2023-04-25T04:34:49;101134.00;;;21.10
44429;BMP180;30134;47.866;-4.222;2023-04-25T04:37:15;101136.00;;;21.00
44429;BMP180;30134;47.866;-4.222;2023-04-25T04:39:41;101136.00;;;21.00
44429;BMP180;30134;47.866;-4.222;2023-04-25T04:42:08;101128.00;;;21.00
44429;BMP180;30134;47.866;-4.222;2023-04-25T04:44:34;101134.00;;;21.00
44429;BMP180;30134;47.866;-4.222;2023-04-25T04:47:01;101126.00;;;21.00
44429;BMP180;30134;47.866;-4.222;2023-04-25T04:49:27;101123.00;;;21.00
44429;BMP180;30134;47.866;-4.222;2023-04-25T04:51:55;101122.00;;;21.00
44429;BMP180;30134;47.866;-4.222;2023-04-25T04:54:22;101119.00;;;21.00
44429;BMP180;30134;47.866;-4.222;2023-04-25T04:56:48;101109.00;;;21.00
44429;BMP180;30134;47.866;-4.222;2023-04-25T04:59:14;101111.00;;;21.00
44429;BMP180;30134;47.866;-4.222;2023-04-25T05:01:40;101114.00;;;21.00
44429;BMP180;30134;47.866;-4.222;2023-04-25T05:04:06;101115.00;;;21.00
44429;BMP180;30134;47.866;-4.222;2023-04-25T05:06:32;101114.00;;;21.00
44429;BMP180;30134;47.866;-4.222;2023-04-25T05:08:58;101110.00;;;21.00
44429;BMP180;30134;47.866;-4.222;2023-04-25T05:11:25;101116.00;;;21.00
44429;BMP180;30134;47.866;-4.222;2023-04-25T05:13:52;101120.00;;;20.90
44429;BMP180;30134;47.866;-4.222;2023-04-25T05:16:19;101121.00;;;20.90
44429;BMP180;30134;47.866;-4.222;2023-04-25T05:18:47;101133.00;;;21.00
44429;BMP180;30134;47.866;-4.222;2023-04-25T05:21:14;101147.00;;;21.00
44429;BMP180;30134;47.866;-4.222;2023-04-25T05:23:39;101139.00;;;20.90
44429;BMP180;30134;47.866;-4.222;2023-04-25T05:26:06;101146.00;;;20.90
44429;BMP180;30134;47.866;-4.222;2023-04-25T05:28:42;101148.00;;;20.90
44429;BMP180;30134;47.866;-4.222;2023-04-25T05:31:10;101159.00;;;20.90
44429;BMP180;30134;47.866;-4.222;2023-04-25T05:33:36;101163.00;;;20.90
44429;BMP180;30134;47.866;-4.222;2023-04-25T05:36:02;101157.00;;;20.90
44429;BMP180;30134;47.866;-4.222;2023-04-25T05:38:28;101153.00;;;20.90
44429;BMP180;30134;47.866;-4.222;2023-04-25T05:40:54;101155.00;;;20.90
44429;BMP180;30134;47.866;-4.222;2023-04-25T05:43:20;101154.00;;;20.90
44429;BMP180;30134;47.866;-4.222;2023-04-25T05:45:47;101152.00;;;20.90
44429;BMP180;30134;47.866;-4.222;2023-04-25T05:48:19;101151.00;;;20.90
44429;BMP180;30134;47.866;-4.222;2023-04-25T05:50:45;101151.00;;;20.80
44429;BMP180;30134;47.866;-4.222;2023-04-25T05:53:11;101152.00;;;20.90
44429;BMP180;30134;47.866;-4.222;2023-04-25T05:55:37;101164.00;;;20.90
44429;BMP180;30134;47.866;-4.222;2023-04-25T05:58:04;101154.00;;;20.80
44429;BMP180;30134;47.866;-4.222;2023-04-25T06:00:31;101156.00;;;20.90
44429;BMP180;30134;47.866;-4.222;2023-04-25T06:02:56;101159.00;;;20.80
44429;BMP180;30134;47.866;-4.222;2023-04-25T06:05:22;101160.00;;;20.80
44429;BMP180;30134;47.866;-4.222;2023-04-25T06:07:48;101150.00;;;20.80
44429;BMP180;30134;47.866;-4.222;2023-04-25T06:10:15;101159.00;;;20.80
44429;BMP180;30134;47.866;-4.222;2023-04-25T06:12:41;101163.00;;;20.80
44429;BMP180;30134;47.866;-4.222;2023-04-25T06:15:07;101161.00;;;20.80
44429;BMP180;30134;47.866;-4.222;2023-04-25T06:17:34;101174.00;;;20.80
44429;BMP180;30134;47.866;-4.222;2023-04-25T06:20:01;101171.00;;;20.80
44429;BMP180;30134;47.866;-4.222;2023-04-25T06:22:27;101174.00;;;20.80
44429;BMP180;30134;47.866;-4.222;2023-04-25T06:24:53;101175.00;;;20.80
44429;BMP180;30134;47.866;-4.222;2023-04-25T06:27:22;101165.00;;;20.80
44429;BMP180;30134;47.866;-4.222;2023-04-25T06:29:49;101157.00;;;20.80
44429;BMP180;30134;47.866;-4.222;2023-04-25T06:32:15;101161.00;;;20.80
44429;BMP180;30134;47.866;-4.222;2023-04-25T06:34:41;101160.00;;;20.80
44429;BMP180;30134;47.866;-4.222;2023-04-25T06:37:07;101174.00;;;20.70
44429;BMP180;30134;47.866;-4.222;2023-04-25T06:39:33;101170.00;;;20.70
44429;BMP180;30134;47.866;-4.222;2023-04-25T06:41:59;101173.00;;;20.70
44429;BMP180;30134;47.866;-4.222;2023-04-25T06:44:25;101171.00;;;20.70
44429;BMP180;30134;47.866;-4.222;2023-04-25T06:46:51;101173.00;;;20.70
44429;BMP180;30134;47.866;-4.222;2023-04-25T06:49:17;101170.00;;;20.70
44429;BMP180;30134;47.866;-4.222;2023-04-25T06:51:43;101165.00;;;20.70
44429;BMP180;30134;47.866;-4.222;2023-04-25T06:54:09;101170.00;;;20.70
44429;BMP180;30134;47.866;-4.222;2023-04-25T06:56:35;101173.00;;;20.70
44429;BMP180;30134;47.866;-4.222;2023-04-25T06:59:02;101170.00;;;20.80
44429;BMP180;30134;47.866;-4.222;2023-04-25T07:01:28;101162.00;;;20.70
44429;BMP180;30134;47.866;-4.222;2023-04-25T07:03:54;101161.00;;;20.70
44429;BMP180;30134;47.866;-4.222;2023-04-25T07:06:20;101161.00;;;20.70
44429;BMP180;30134;47.866;-4.222;2023-04-25T07:08:46;101154.00;;;20.70
44429;BMP180;30134;47.866;-4.222;2023-04-25T07:11:12;101161.00;;;20.70
44429;BMP180;30134;47.866;-4.222;2023-04-25T07:13:38;101155.00;;;20.60
44429;BMP180;30134;47.866;-4.222;2023-04-25T07:16:04;101169.00;;;20.70
44429;BMP180;30134;47.866;-4.222;2023-04-25T07:18:30;101174.00;;;20.70
44429;BMP180;30134;47.866;-4.222;2023-04-25T07:20:56;101162.00;;;20.70
44429;BMP180;30134;47.866;-4.222;2023-04-25T07:23:22;101164.00;;;20.70
44429;BMP180;30134;47.866;-4.222;2023-04-25T07:25:48;101165.00;;;20.70
44429;BMP180;30134;47.866;-4.222;2023-04-25T07:28:14;101174.00;;;20.60
44429;BMP180;30134;47.866;-4.222;2023-04-25T07:30:40;101167.00;;;20.90
44429;BMP180;30134;47.866;-4.222;2023-04-25T07:33:06;101172.00;;;21.30
44429;BMP180;30134;47.866;-4.222;2023-04-25T07:35:32;101174.00;;;21.40
44429;BMP180;30134;47.866;-4.222;2023-04-25T07:37:58;101176.00;;;21.50
44429;BMP180;30134;47.866;-4.222;2023-04-25T07:40:24;101173.00;;;21.50
44429;BMP180;30134;47.866;-4.222;2023-04-25T07:42:50;101166.00;;;21.60
44429;BMP180;30134;47.866;-4.222;2023-04-25T07:45:16;101163.00;;;21.60
44429;BMP180;30134;47.866;-4.222;2023-04-25T07:47:42;101161.00;;;21.70
44429;BMP180;30134;47.866;-4.222;2023-04-25T07:50:09;101161.00;;;21.70
44429;BMP180;30134;47.866;-4.222;2023-04-25T07:52:37;101165.00;;;21.80
44429;BMP180;30134;47.866;-4.222;2023-04-25T07:55:04;101165.00;;;21.90
44429;BMP180;30134;47.866;-4.222;2023-04-25T07:57:30;101167.00;;;21.80
44429;BMP180;30134;47.866;-4.222;2023-04-25T07:59:56;101159.00;;;21.90
44429;BMP180;30134;47.866;-4.222;2023-04-25T08:02:22;101163.00;;;21.60
44429;BMP180;30134;47.866;-4.222;2023-04-25T08:04:48;101163.00;;;21.80
44429;BMP180;30134;47.866;-4.222;2023-04-25T08:07:15;101158.00;;;22.00
44429;BMP180;30134;47.866;-4.222;2023-04-25T08:09:41;101155.00;;;22.10
44429;BMP180;30134;47.866;-4.222;2023-04-25T08:12:07;101156.00;;;22.10
44429;BMP180;30134;47.866;-4.222;2023-04-25T08:14:33;101156.00;;;22.10
44429;BMP180;30134;47.866;-4.222;2023-04-25T08:17:03;101167.00;;;22.10
44429;BMP180;30134;47.866;-4.222;2023-04-25T08:19:30;101164.00;;;22.20
44429;BMP180;30134;47.866;-4.222;2023-04-25T08:21:56;101171.00;;;22.20
44429;BMP180;30134;47.866;-4.222;2023-04-25T08:24:23;101165.00;;;22.20
44429;BMP180;30134;47.866;-4.222;2023-04-25T08:26:49;101163.00;;;22.20
44429;BMP180;30134;47.866;-4.222;2023-04-25T08:29:16;101155.00;;;22.30
44429;BMP180;30134;47.866;-4.222;2023-04-25T08:31:41;101159.00;;;22.40
44429;BMP180;30134;47.866;-4.222;2023-04-25T08:34:07;101159.00;;;22.30
44429;BMP180;30134;47.866;-4.222;2023-04-25T08:36:33;101164.00;;;22.30
44429;BMP180;30134;47.866;-4.222;2023-04-25T08:39:07;101169.00;;;22.30
44429;BMP180;30134;47.866;-4.222;2023-04-25T08:41:47;101167.00;;;22.40
44429;BMP180;30134;47.866;-4.222;2023-04-25T08:44:14;101160.00;;;22.40
44429;BMP180;30134;47.866;-4.222;2023-04-25T08:46:41;101158.00;;;22.50
44429;BMP180;30134;47.866;-4.222;2023-04-25T08:49:08;101160.00;;;22.40
44429;BMP180;30134;47.866;-4.222;2023-04-25T08:51:44;101172.00;;;22.40
44429;BMP180;30134;47.866;-4.222;2023-04-25T08:54:14;101166.00;;;22.40
44429;BMP180;30134;47.866;-4.222;2023-04-25T08:56:47;101167.00;;;22.50
44429;BMP180;30134;47.866;-4.222;2023-04-25T08:59:14;101164.00;;;22.40
44429;BMP180;30134;47.866;-4.222;2023-04-25T09:01:40;101166.00;;;22.50
44429;BMP180;30134;47.866;-4.222;2023-04-25T09:04:07;101166.00;;;22.50
44429;BMP180;30134;47.866;-4.222;2023-04-25T09:06:33;101169.00;;;22.50
44429;BMP180;30134;47.866;-4.222;2023-04-25T09:09:05;101167.00;;;22.50
44429;BMP180;30134;47.866;-4.222;2023-04-25T09:11:33;101168.00;;;22.60
44429;BMP180;30134;47.866;-4.222;2023-04-25T09:14:15;101173.00;;;22.50
44429;BMP180;30134;47.866;-4.222;2023-04-25T09:17:01;101165.00;;;22.50
44429;BMP180;30134;47.866;-4.222;2023-04-25T09:19:34;101159.00;;;22.60
44429;BMP180;30134;47.866;-4.222;2023-04-25T09:22:06;101162.00;;;22.60
44429;BMP180;30134;47.866;-4.222;2023-04-25T09:24:38;101156.00;;;22.60
44429;BMP180;30134;47.866;-4.222;2023-04-25T09:27:13;101160.00;;;22.70
44429;BMP180;30134;47.866;-4.222;2023-04-25T09:29:42;101164.00;;;22.70
44429;BMP180;30134;47.866;-4.222;2023-04-25T09:32:23;101156.00;;;22.70
44429;BMP180;30134;47.866;-4.222;2023-04-25T09:34:54;101157.00;;;22.80
44429;BMP180;30134;47.866;-4.222;2023-04-25T09:37:22;101159.00;;;22.90
44429;BMP180;30134;47.866;-4.222;2023-04-25T09:39:51;101162.00;;;23.00
44429;BMP180;30134;47.866;-4.222;2023-04-25T09:42:17;101160.00;;;23.00
44429;BMP180;30134;47.866;-4.222;2023-04-25T09:44:45;101159.00;;;22.50
44429;BMP180;30134;47.866;-4.222;2023-04-25T09:47:15;101155.00;;;21.70
44429;BMP180;30134;47.866;-4.222;2023-04-25T09:49:49;101173.00;;;21.50
44429;BMP180;30134;47.866;-4.222;2023-04-25T09:52:19;101171.00;;;21.40
44429;BMP180;30134;47.866;-4.222;2023-04-25T09:54:47;101166.00;;;21.30
44429;BMP180;30134;47.866;-4.222;2023-04-25T09:57:24;101175.00;;;21.10
44429;BMP180;30134;47.866;-4.222;2023-04-25T09:59:54;101180.00;;;21.00
44429;BMP180;30134;47.866;-4.222;2023-04-25T10:02:27;101172.00;;;21.00
44429;BMP180;30134;47.866;-4.222;2023-04-25T10:04:55;101168.00;;;21.00
44429;BMP180;30134;47.866;-4.222;2023-04-25T10:07:29;101182.00;;;21.00
44429;BMP180;30134;47.866;-4.222;2023-04-25T10:10:02;101187.00;;;20.90
44429;BMP180;30134;47.866;-4.222;2023-04-25T10:12:30;101182.00;;;20.90
44429;BMP180;30134;47.866;-4.222;2023-04-25T10:14:59;101184.00;;;20.90
44429;BMP180;30134;47.866;-4.222;2023-04-25T10:17:27;101200.00;;;20.90
44429;BMP180;30134;47.866;-4.222;2023-04-25T10:19:54;101208.00;;;20.90
44429;BMP180;30134;47.866;-4.222;2023-04-25T10:22:35;101217.00;;;20.90
44429;BMP180;30134;47.866;-4.222;2023-04-25T10:25:05;101208.00;;;20.90
44429;BMP180;30134;47.866;-4.222;2023-04-25T10:27:32;101209.00;;;20.90
44429;BMP180;30134;47.866;-4.222;2023-04-25T10:30:04;101214.00;;;20.80
44429;BMP180;30134;47.866;-4.222;2023-04-25T10:32:32;101215.00;;;20.80
44429;BMP180;30134;47.866;-4.222;2023-04-25T10:38:09;101201.00;;;20.90
44429;BMP180;30134;47.866;-4.222;2023-04-25T10:40:35;101204.00;;;20.90
44429;BMP180;30134;47.866;-4.222;2023-04-25T10:43:42;101203.00;;;20.80
44429;BMP180;30134;47.866;-4.222;2023-04-25T10:46:25;101204.00;;;20.90
44429;BMP180;30134;47.866;-4.222;2023-04-25T10:49:01;101204.00;;;20.90
44429;BMP180;30134;47.866;-4.222;2023-04-25T10:51:35;101198.00;;;20.90
44429;BMP180;30134;47.866;-4.222;2023-04-25T10:54:07;101197.00;;;20.90
44429;BMP180;30134;47.866;-4.222;2023-04-25T10:56:39;101194.00;;;20.80
44429;BMP180;30134;47.866;-4.222;2023-04-25T10:59:19;101190.00;;;20.80
44429;BMP180;30134;47.866;-4.222;2023-04-25T11:01:51;101196.00;;;20.80
44429;BMP180;30134;47.866;-4.222;2023-04-25T11:04:32;101187.00;;;20.80
44429;BMP180;30134;47.866;-4.222;2023-04-25T11:09:40;101200.00;;;20.80
44429;BMP180;30134;47.866;-4.222;2023-04-25T11:12:15;101189.00;;;20.90
44429;BMP180;30134;47.866;-4.222;2023-04-25T11:14:42;101190.00;;;20.80
44429;BMP180;30134;47.866;-4.222;2023-04-25T11:17:08;101183.00;;;20.90
44429;BMP180;30134;47.866;-4.222;2023-04-25T11:19:34;101184.00;;;20.90
44429;BMP180;30134;47.866;-4.222;2023-04-25T11:22:02;101188.00;;;20.90
44429;BMP180;30134;47.866;-4.222;2023-04-25T11:24:35;101182.00;;;20.90
44429;BMP180;30134;47.866;-4.222;2023-04-25T11:27:03;101174.00;;;20.90
44429;BMP180;30134;47.866;-4.222;2023-04-25T11:29:30;101167.00;;;20.90
44429;BMP180;30134;47.866;-4.222;2023-04-25T11:31:58;101173.00;;;20.90
44429;BMP180;30134;47.866;-4.222;2023-04-25T11:34:28;101177.00;;;20.90
44429;BMP180;30134;47.866;-4.222;2023-04-25T11:36:56;101178.00;;;20.90
44429;BMP180;30134;47.866;-4.222;2023-04-25T11:39:25;101165.00;;;20.90
44429;BMP180;30134;47.866;-4.222;2023-04-25T11:41:52;101157.00;;;20.90
44429;BMP180;30134;47.866;-4.222;2023-04-25T11:44:19;101160.00;;;20.90
44429;BMP180;30134;47.866;-4.222;2023-04-25T11:46:46;101161.00;;;20.90
44429;BMP180;30134;47.866;-4.222;2023-04-25T11:49:15;101154.00;;;20.90
44429;BMP180;30134;47.866;-4.222;2023-04-25T11:51:48;101155.00;;;20.90
44429;BMP180;30134;47.866;-4.222;2023-04-25T11:54:15;101151.00;;;20.90
44429;BMP180;30134;47.866;-4.222;2023-04-25T11:56:45;101156.00;;;20.90
44429;BMP180;30134;47.866;-4.222;2023-04-25T11:59:12;101155.00;;;20.90
44429;BMP180;30134;47.866;-4.222;2023-04-25T12:01:41;101151.00;;;20.90
44429;BMP180;30134;47.866;-4.222;2023-04-25T12:06:43;101154.00;;;20.90
44429;BMP180;30134;47.866;-4.222;2023-04-25T12:09:11;101167.00;;;20.90
44429;BMP180;30134;47.866;-4.222;2023-04-25T12:11:52;101157.00;;;20.90
44429;BMP180;30134;47.866;-4.222;2023-04-25T12:14:33;101165.00;;;20.90
44429;BMP180;30134;47.866;-4.222;2023-04-25T12:17:02;101162.00;;;20.90
44429;BMP180;30134;47.866;-4.222;2023-04-25T12:19:38;101162.00;;;20.90
44429;BMP180;30134;47.866;-4.222;2023-04-25T12:22:27;101170.00;;;20.90
44429;BMP180;30134;47.866;-4.222;2023-04-25T12:24:54;101161.00;;;20.90
44429;BMP180;30134;47.866;-4.222;2023-04-25T12:27:20;101162.00;;;20.80
44429;BMP180;30134;47.866;-4.222;2023-04-25T12:29:54;101155.00;;;21.10
44429;BMP180;30134;47.866;-4.222;2023-04-25T12:32:21;101161.00;;;21.50
44429;BMP180;30134;47.866;-4.222;2023-04-25T12:34:47;101156.00;;;21.60
44429;BMP180;30134;47.866;-4.222;2023-04-25T12:37:14;101160.00;;;21.80
44429;BMP180;30134;47.866;-4.222;2023-04-25T12:39:40;101161.00;;;21.80
44429;BMP180;30134;47.866;-4.222;2023-04-25T12:42:06;101161.00;;;22.00
44429;BMP180;30134;47.866;-4.222;2023-04-25T12:44:34;101164.00;;;22.00
44429;BMP180;30134;47.866;-4.222;2023-04-25T12:47:01;101167.00;;;22.00
44429;BMP180;30134;47.866;-4.222;2023-04-25T12:49:28;101161.00;;;22.00
44429;BMP180;30134;47.866;-4.222;2023-04-25T12:51:54;101157.00;;;22.10
44429;BMP180;30134;47.866;-4.222;2023-04-25T12:54:20;101155.00;;;22.10
44429;BMP180;30134;47.866;-4.222;2023-04-25T12:56:46;101156.00;;;22.20
44429;BMP180;30134;47.866;-4.222;2023-04-25T12:59:13;101163.00;;;22.20
44429;BMP180;30134;47.866;-4.222;2023-04-25T13:01:39;101165.00;;;22.30
44429;BMP180;30134;47.866;-4.222;2023-04-25T13:04:05;101163.00;;;22.20
44429;BMP180;30134;47.866;-4.222;2023-04-25T13:06:31;101164.00;;;22.20
44429;BMP180;30134;47.866;-4.222;2023-04-25T13:08:57;101169.00;;;22.30
44429;BMP180;30134;47.866;-4.222;2023-04-25T13:11:23;101167.00;;;22.40
44429;BMP180;30134;47.866;-4.222;2023-04-25T13:13:49;101157.00;;;22.40
44429;BMP180;30134;47.866;-4.222;2023-04-25T13:16:15;101161.00;;;22.50
44429;BMP180;30134;47.866;-4.222;2023-04-25T13:18:41;101161.00;;;22.50
44429;BMP180;30134;47.866;-4.222;2023-04-25T13:21:09;101164.00;;;22.50
44429;BMP180;30134;47.866;-4.222;2023-04-25T13:23:37;101165.00;;;22.50
44429;BMP180;30134;47.866;-4.222;2023-04-25T13:26:03;101170.00;;;22.50
44429;BMP180;30134;47.866;-4.222;2023-04-25T13:28:29;101160.00;;;22.50
44429;BMP180;30134;47.866;-4.222;2023-04-25T13:30:55;101161.00;;;22.60
44429;BMP180;30134;47.866;-4.222;2023-04-25T13:33:21;101156.00;;;22.60
44429;BMP180;30134;47.866;-4.222;2023-04-25T13:35:48;101149.00;;;22.60
44429;BMP180;30134;47.866;-4.222;2023-04-25T13:38:20;101145.00;;;22.60
44429;BMP180;30134;47.866;-4.222;2023-04-25T13:40:47;101140.00;;;22.70
44429;BMP180;30134;47.866;-4.222;2023-04-25T13:43:13;101146.00;;;22.70
44429;BMP180;30134;47.866;-4.222;2023-04-25T13:45:39;101139.00;;;22.70
44429;BMP180;30134;47.866;-4.222;2023-04-25T13:48:05;101136.00;;;22.80
44429;BMP180;30134;47.866;-4.222;2023-04-25T13:50:32;101133.00;;;22.70
44429;BMP180;30134;47.866;-4.222;2023-04-25T13:52:58;101131.00;;;22.80
44429;BMP180;30134;47.866;-4.222;2023-04-25T13:55:24;101135.00;;;22.80